Time,TemperatureF,DewpointF,PressureIn,WindDirection,WindDirectionDegrees,WindSpeedMPH,WindSpeedGustMPH,Humidity,HourlyPrecipIn,Conditions,Clouds,dailyrainin,SoftwareType,DateUTC
2013-07-16 00:00:00,52.4,50.4,29.82,SSE,165,0.0,0.0,93,0.00,,,0.00,Wunderground v.1.15,2013-07-16 07:00:00,
2013-07-16 00:10:00,52.1,50.1,29.81,SSE,165,0.0,0.0,93,0.00,,,0.00,Wunderground v.1.15,2013-07-16 07:10:00,
2013-07-16 00:15:00,52.0,50.0,29.81,SSE,165,0.0,0.0,93,0.00,,,0.00,Wunderground v.1.15,2013-07-16 07:15:00,
2013-07-16 00:25:00,51.8,50.1,29.81,SSE,165,0.0,0.0,94,0.00,,,0.00,Wunderground v.1.15,2013-07-16 07:25:00,
2013-07-16 00:35:00,51.5,49.8,29.81,SSE,165,0.0,0.0,94,0.00,,,0.00,Wunderground v.1.15,2013-07-16 07:35:00,
2013-07-16 00:45:00,51.4,49.7,29.81,SSE,165,0.0,0.0,94,0.00,,,0.00,Wunderground v.1.15,2013-07-16 07:45:00,
2013-07-16 00:55:00,51.3,49.9,29.81,SSE,165,0.0,0.0,95,0.00,,,0.00,Wunderground v.1.15,2013-07-16 07:55:00,
2013-07-16 01:00:00,51.2,49.8,29.81,SSE,165,0.0,0.0,95,0.00,,,0.00,Wunderground v.1.15,2013-07-16 08:00:00,
2013-07-16 01:10:00,51.1,49.4,29.82,SSE,165,0.0,0.0,94,0.00,,,0.00,Wunderground v.1.15,2013-07-16 08:10:00,
2013-07-16 01:20:00,50.9,49.5,29.82,SSE,165,0.0,0.0,95,0.00,,,0.00,Wunderground v.1.15,2013-07-16 08:20:00,
2013-07-16 01:30:00,50.7,49.3,29.82,SSE,165,0.0,0.0,95,0.00,,,0.00,Wunderground v.1.15,2013-07-16 08:30:00,
2013-07-16 01:40:00,50.6,49.2,29.82,SSE,165,0.0,0.0,95,0.00,,,0.00,Wunderground v.1.15,2013-07-16 08:40:00,
2013-07-16 01:50:00,50.6,49.2,29.81,SSE,165,0.0,0.0,95,0.00,,,0.00,Wunderground v.1.15,2013-07-16 08:50:00,
2013-07-16 02:00:00,50.4,49.3,29.81,SSE,165,0.0,0.0,96,0.00,,,0.00,Wunderground v.1.15,2013-07-16 09:00:00,
2013-07-16 02:10:00,50.5,49.4,29.81,NNE,14,0.0,0.0,96,0.00,,,0.00,Wunderground v.1.15,2013-07-16 09:10:00,
2013-07-16 02:20:00,50.4,49.3,29.81,NNE,14,0.0,0.0,96,0.00,,,0.00,Wunderground v.1.15,2013-07-16 09:20:00,
2013-07-16 02:30:00,50.2,49.1,29.81,NNE,14,0.0,0.0,96,0.00,,,0.00,Wunderground v.1.15,2013-07-16 09:30:00,
2013-07-16 02:40:00,50.0,48.9,29.81,NNE,14,0.0,0.0,96,0.00,,,0.00,Wunderground v.1.15,2013-07-16 09:40:00,
2013-07-16 02:50:00,50.1,49.3,29.81,NNE,14,0.0,0.0,97,0.00,,,0.00,Wunderground v.1.15,2013-07-16 09:50:00,
2013-07-16 03:00:00,50.5,49.7,29.81,NW,315,0.0,1.0,97,0.00,,,0.00,Wunderground v.1.15,2013-07-16 10:00:00,
2013-07-16 03:10:00,51.2,50.4,29.81,WSW,244,1.0,1.0,97,0.00,,,0.00,Wunderground v.1.15,2013-07-16 10:10:00,
2013-07-16 03:15:00,51.3,50.5,29.81,NW,315,1.0,1.0,97,0.00,,,0.00,Wunderground v.1.15,2013-07-16 10:15:00,
2013-07-16 03:25:00,51.0,49.9,29.81,NW,315,0.0,0.0,96,0.00,,,0.00,Wunderground v.1.15,2013-07-16 10:25:00,
2013-07-16 03:35:00,51.0,49.9,29.81,NW,315,0.0,0.0,96,0.00,,,0.00,Wunderground v.1.15,2013-07-16 10:35:00,
2013-07-16 03:45:00,51.0,49.9,29.81,NW,315,0.0,0.0,96,0.00,,,0.00,Wunderground v.1.15,2013-07-16 10:45:00,
2013-07-16 03:55:00,51.1,50.0,29.81,NW,315,0.0,0.0,96,0.00,,,0.00,Wunderground v.1.15,2013-07-16 10:55:00,
2013-07-16 04:00:00,51.2,50.1,29.81,NW,315,0.0,0.0,96,0.00,,,0.00,Wunderground v.1.15,2013-07-16 11:00:00,
2013-07-16 04:10:00,51.3,50.2,29.81,NW,315,0.0,0.0,96,0.00,,,0.00,Wunderground v.1.15,2013-07-16 11:10:00,
2013-07-16 04:20:00,51.4,50.6,29.80,NW,315,0.0,0.0,97,0.00,,,0.00,Wunderground v.1.15,2013-07-16 11:20:00,
2013-07-16 04:30:00,51.4,50.3,29.81,NW,315,0.0,0.0,96,0.00,,,0.00,Wunderground v.1.15,2013-07-16 11:30:00,
2013-07-16 04:40:00,51.5,50.4,29.81,SW,236,0.0,0.0,96,0.00,,,0.00,Wunderground v.1.15,2013-07-16 11:40:00,
2013-07-16 04:50:00,51.5,50.4,29.81,SW,236,0.0,0.0,96,0.00,,,0.00,Wunderground v.1.15,2013-07-16 11:50:00,
2013-07-16 05:00:00,51.6,50.5,29.80,SW,236,0.0,0.0,96,0.00,,,0.00,Wunderground v.1.15,2013-07-16 12:00:00,
2013-07-16 05:10:00,51.6,50.2,29.81,SW,236,0.0,0.0,95,0.00,,,0.00,Wunderground v.1.15,2013-07-16 12:10:00,
2013-07-16 05:20:00,51.6,50.2,29.81,SW,236,0.0,0.0,95,0.00,,,0.00,Wunderground v.1.15,2013-07-16 12:20:00,
2013-07-16 05:30:00,51.6,50.2,29.81,SW,236,0.0,0.0,95,0.00,,,0.00,Wunderground v.1.15,2013-07-16 12:30:00,
2013-07-16 05:40:00,51.7,50.3,29.81,SW,236,0.0,0.0,95,0.00,,,0.00,Wunderground v.1.15,2013-07-16 12:40:00,
2013-07-16 05:50:00,51.7,50.3,29.81,SW,236,0.0,0.0,95,0.00,,,0.00,Wunderground v.1.15,2013-07-16 12:50:00,
2013-07-16 06:00:00,51.7,50.3,29.81,SW,236,0.0,0.0,95,0.00,,,0.00,Wunderground v.1.15,2013-07-16 13:00:00,
2013-07-16 06:05:00,51.7,50.3,29.81,SW,236,0.0,1.0,95,0.00,,,0.00,Wunderground v.1.15,2013-07-16 13:05:00,
2013-07-16 06:15:00,51.6,49.9,29.82,SW,228,0.0,1.0,94,0.00,,,0.00,Wunderground v.1.15,2013-07-16 13:15:00,
2013-07-16 06:20:00,51.5,49.8,29.81,WNW,296,0.0,1.0,94,0.00,,,0.00,Wunderground v.1.15,2013-07-16 13:20:00,
2013-07-16 06:30:00,51.4,50.0,29.81,WSW,252,1.0,1.0,95,0.00,,,0.00,Wunderground v.1.15,2013-07-16 13:30:00,
2013-07-16 06:40:00,51.5,50.1,29.82,SW,216,0.0,0.0,95,0.00,,,0.00,Wunderground v.1.15,2013-07-16 13:40:00,
2013-07-16 06:50:00,51.7,50.3,29.82,South,176,0.0,0.0,95,0.00,,,0.00,Wunderground v.1.15,2013-07-16 13:50:00,
2013-07-16 07:00:00,51.7,50.3,29.82,South,176,0.0,0.0,95,0.00,,,0.00,Wunderground v.1.15,2013-07-16 14:00:00,
2013-07-16 07:10:00,51.9,50.5,29.82,NW,309,0.0,0.0,95,0.00,,,0.00,Wunderground v.1.15,2013-07-16 14:10:00,
2013-07-16 07:20:00,52.0,50.3,29.83,NW,309,0.0,0.0,94,0.00,,,0.00,Wunderground v.1.15,2013-07-16 14:20:00,
2013-07-16 07:30:00,52.2,50.5,29.82,WSW,245,0.0,0.0,94,0.00,,,0.00,Wunderground v.1.15,2013-07-16 14:30:00,
2013-07-16 07:40:00,52.4,50.7,29.83,NE,51,0.0,1.0,94,0.00,,,0.00,Wunderground v.1.15,2013-07-16 14:40:00,
2013-07-16 07:50:00,52.6,50.9,29.83,NE,51,0.0,0.0,94,0.00,,,0.00,Wunderground v.1.15,2013-07-16 14:50:00,
2013-07-16 08:00:00,52.8,50.8,29.83,WNW,291,0.0,0.0,93,0.00,,,0.00,Wunderground v.1.15,2013-07-16 15:00:00,
2013-07-16 08:10:00,53.1,51.1,29.83,WSW,240,0.0,0.0,93,0.00,,,0.00,Wunderground v.1.15,2013-07-16 15:10:00,
2013-07-16 08:20:00,53.5,51.5,29.83,WNW,302,1.0,1.0,93,0.00,,,0.00,Wunderground v.1.15,2013-07-16 15:20:00,
2013-07-16 08:30:00,53.9,51.6,29.84,NNW,327,0.0,0.0,92,0.00,,,0.00,Wunderground v.1.15,2013-07-16 15:30:00,
2013-07-16 08:40:00,54.4,51.8,29.84,North,360,0.0,0.0,91,0.00,,,0.00,Wunderground v.1.15,2013-07-16 15:40:00,
2013-07-16 08:50:00,55.0,52.1,29.84,North,360,0.0,0.0,90,0.00,,,0.00,Wunderground v.1.15,2013-07-16 15:50:00,
2013-07-16 09:00:00,55.5,52.3,29.84,North,355,1.0,1.0,89,0.00,,,0.00,Wunderground v.1.15,2013-07-16 16:00:00,
2013-07-16 09:10:00,56.1,52.9,29.84,NNW,340,0.0,0.0,89,0.00,,,0.00,Wunderground v.1.15,2013-07-16 16:10:00,
2013-07-16 09:20:00,57.2,53.7,29.84,NE,39,0.0,0.0,88,0.00,,,0.00,Wunderground v.1.15,2013-07-16 16:20:00,
2013-07-16 09:30:00,57.8,54.0,29.85,West,279,1.0,1.0,87,0.00,,,0.00,Wunderground v.1.15,2013-07-16 16:30:00,
2013-07-16 09:40:00,57.9,53.7,29.84,NW,309,2.0,2.0,86,0.00,,,0.00,Wunderground v.1.15,2013-07-16 16:40:00,
2013-07-16 09:50:00,58.3,54.4,29.85,WNW,301,2.0,2.0,87,0.00,,,0.00,Wunderground v.1.15,2013-07-16 16:50:00,
2013-07-16 10:00:00,58.9,54.4,29.85,North,349,2.0,2.0,85,0.00,,,0.00,Wunderground v.1.15,2013-07-16 17:00:00,
2013-07-16 10:10:00,59.0,54.8,29.85,NW,314,2.0,2.0,86,0.00,,,0.00,Wunderground v.1.15,2013-07-16 17:10:00,
2013-07-16 10:20:00,59.2,55.0,29.85,WSW,253,2.0,2.0,86,0.00,,,0.00,Wunderground v.1.15,2013-07-16 17:20:00,
2013-07-16 10:30:00,59.2,55.0,29.86,North,5,1.0,2.0,86,0.00,,,0.00,Wunderground v.1.15,2013-07-16 17:30:00,
2013-07-16 10:40:00,59.2,55.0,29.86,NNW,344,1.0,2.0,86,0.00,,,0.00,Wunderground v.1.15,2013-07-16 17:40:00,
2013-07-16 10:45:00,59.2,55.0,29.86,ESE,105,2.0,2.0,86,0.00,,,0.00,Wunderground v.1.15,2013-07-16 17:45:00,
2013-07-16 10:55:00,60.0,55.5,29.87,NNW,329,1.0,2.0,85,0.00,,,0.00,Wunderground v.1.15,2013-07-16 17:55:00,
2013-07-16 11:00:00,60.0,55.2,29.87,North,355,2.0,2.0,84,0.00,,,0.00,Wunderground v.1.15,2013-07-16 18:00:00,
2013-07-16 11:10:00,60.7,55.5,29.87,North,11,1.0,1.0,83,0.00,,,0.00,Wunderground v.1.15,2013-07-16 18:10:00,
2013-07-16 11:20:00,61.2,56.3,29.87,NW,307,2.0,4.0,84,0.00,,,0.00,Wunderground v.1.15,2013-07-16 18:20:00,
2013-07-16 11:25:00,61.6,56.4,29.87,NNW,327,3.0,4.0,83,0.00,,,0.00,Wunderground v.1.15,2013-07-16 18:25:00,
2013-07-16 11:35:00,61.8,56.6,29.87,NW,322,2.0,5.0,83,0.00,,,0.00,Wunderground v.1.15,2013-07-16 18:35:00,
2013-07-16 11:45:00,61.9,57.3,29.87,North,355,1.0,2.0,85,0.00,,,0.00,Wunderground v.1.15,2013-07-16 18:45:00,
2013-07-16 11:55:00,62.3,57.1,29.87,ENE,76,2.0,2.0,83,0.00,,,0.00,Wunderground v.1.15,2013-07-16 18:55:00,
2013-07-16 12:00:00,62.4,56.8,29.87,North,355,2.0,3.0,82,0.00,,,0.00,Wunderground v.1.15,2013-07-16 19:00:00,
2013-07-16 12:10:00,62.8,57.6,29.87,NW,317,2.0,5.0,83,0.00,,,0.00,Wunderground v.1.15,2013-07-16 19:10:00,
2013-07-16 12:20:00,62.9,57.3,29.88,NE,49,2.0,2.0,82,0.00,,,0.00,Wunderground v.1.15,2013-07-16 19:20:00,
2013-07-16 12:30:00,63.0,57.4,29.88,NW,325,2.0,2.0,82,0.00,,,0.00,Wunderground v.1.15,2013-07-16 19:30:00,
2013-07-16 12:40:00,63.3,57.0,29.89,WSW,256,1.0,3.0,80,0.00,,,0.00,Wunderground v.1.15,2013-07-16 19:40:00,
2013-07-16 12:50:00,63.1,57.5,29.89,SSW,207,2.0,2.0,82,0.00,,,0.00,Wunderground v.1.15,2013-07-16 19:50:00,
2013-07-16 13:00:00,63.1,57.2,29.90,SSW,213,2.0,2.0,81,0.00,,,0.00,Wunderground v.1.15,2013-07-16 20:00:00,
2013-07-16 13:10:00,63.5,57.6,29.90,NW,315,1.0,1.0,81,0.00,,,0.00,Wunderground v.1.15,2013-07-16 20:10:00,
2013-07-16 13:20:00,63.7,57.4,29.90,WNW,284,2.0,2.0,80,0.00,,,0.00,Wunderground v.1.15,2013-07-16 20:20:00,
2013-07-16 13:30:00,63.4,57.5,29.90,North,355,1.0,1.0,81,0.00,,,0.00,Wunderground v.1.15,2013-07-16 20:30:00,
2013-07-16 13:40:00,63.5,57.2,29.90,WNW,298,1.0,1.0,80,0.00,,,0.00,Wunderground v.1.15,2013-07-16 20:40:00,
2013-07-16 13:50:00,63.8,57.9,29.90,NNW,333,1.0,1.0,81,0.00,,,0.00,Wunderground v.1.15,2013-07-16 20:50:00,
2013-07-16 14:00:00,63.8,57.9,29.90,SSE,147,2.0,2.0,81,0.00,,,0.00,Wunderground v.1.15,2013-07-16 21:00:00,
2013-07-16 14:10:00,64.2,58.6,29.90,West,263,1.0,1.0,82,0.00,,,0.00,Wunderground v.1.15,2013-07-16 21:10:00,
2013-07-16 14:20:00,64.1,58.5,29.91,NNW,336,2.0,3.0,82,0.00,,,0.00,Wunderground v.1.15,2013-07-16 21:20:00,
2013-07-16 14:30:00,63.9,58.3,29.91,NW,325,2.0,5.0,82,0.00,,,0.00,Wunderground v.1.15,2013-07-16 21:30:00,
2013-07-16 14:40:00,63.6,58.0,29.91,West,270,2.0,2.0,82,0.00,,,0.00,Wunderground v.1.15,2013-07-16 21:40:00,
2013-07-16 14:50:00,63.2,57.3,29.91,NW,317,1.0,2.0,81,0.00,,,0.00,Wunderground v.1.15,2013-07-16 21:50:00,
2013-07-16 15:00:00,62.9,57.7,29.92,WNW,300,2.0,2.0,83,0.00,,,0.00,Wunderground v.1.15,2013-07-16 22:00:00,
2013-07-16 15:10:00,63.0,57.4,29.92,NW,311,2.0,5.0,82,0.00,,,0.00,Wunderground v.1.15,2013-07-16 22:10:00,
2013-07-16 15:15:00,62.8,57.2,29.92,West,281,2.0,5.0,82,0.00,,,0.00,Wunderground v.1.15,2013-07-16 22:15:00,
2013-07-16 15:25:00,63.0,57.4,29.92,North,349,3.0,3.0,82,0.00,,,0.00,Wunderground v.1.15,2013-07-16 22:25:00,
2013-07-16 15:35:00,63.7,57.8,29.92,North,360,1.0,5.0,81,0.00,,,0.00,Wunderground v.1.15,2013-07-16 22:35:00,
2013-07-16 15:45:00,64.2,58.2,29.92,North,355,3.0,3.0,81,0.00,,,0.00,Wunderground v.1.15,2013-07-16 22:45:00,
2013-07-16 15:55:00,64.4,57.7,29.92,NW,307,3.0,5.0,79,0.00,,,0.00,Wunderground v.1.15,2013-07-16 22:55:00,
2013-07-16 16:00:00,63.9,58.0,29.93,NW,304,4.0,4.0,81,0.00,,,0.00,Wunderground v.1.15,2013-07-16 23:00:00,
2013-07-16 16:10:00,63.5,57.6,29.93,NW,305,2.0,4.0,81,0.00,,,0.00,Wunderground v.1.15,2013-07-16 23:10:00,
2013-07-16 16:25:00,63.3,57.4,29.93,North,5,2.0,3.0,81,0.00,,,0.00,Wunderground v.1.15,2013-07-16 23:25:00,
2013-07-16 16:35:00,63.3,56.7,29.93,WNW,285,2.0,5.0,79,0.00,,,0.00,Wunderground v.1.15,2013-07-16 23:35:00,
2013-07-16 16:45:00,62.8,56.9,29.93,ENE,63,2.0,2.0,81,0.00,,,0.00,Wunderground v.1.15,2013-07-16 23:45:00,
2013-07-16 16:50:00,62.8,56.9,29.93,NE,47,2.0,3.0,81,0.00,,,0.00,Wunderground v.1.15,2013-07-16 23:50:00,
2013-07-16 17:00:00,63.1,56.8,29.93,NE,54,2.0,2.0,80,0.00,,,0.00,Wunderground v.1.15,2013-07-17 00:00:00,
2013-07-16 17:10:00,62.6,56.3,29.94,WNW,302,2.0,2.0,80,0.00,,,0.00,Wunderground v.1.15,2013-07-17 00:10:00,
2013-07-16 17:20:00,62.3,56.4,29.94,NNE,25,1.0,1.0,81,0.00,,,0.00,Wunderground v.1.15,2013-07-17 00:20:00,
2013-07-16 17:30:00,62.2,56.3,29.94,NNW,339,2.0,3.0,81,0.00,,,0.00,Wunderground v.1.15,2013-07-17 00:30:00,
2013-07-16 17:40:00,62.4,56.8,29.94,NNW,342,2.0,2.0,82,0.00,,,0.00,Wunderground v.1.15,2013-07-17 00:40:00,
2013-07-16 17:50:00,62.3,56.4,29.94,NNE,25,2.0,4.0,81,0.00,,,0.00,Wunderground v.1.15,2013-07-17 00:50:00,
2013-07-16 18:00:00,62.2,56.3,29.94,WNW,301,2.0,3.0,81,0.00,,,0.00,Wunderground v.1.15,2013-07-17 01:00:00,
2013-07-16 18:10:00,62.2,56.3,29.94,SE,130,2.0,2.0,81,0.00,,,0.00,Wunderground v.1.15,2013-07-17 01:10:00,
2013-07-16 18:20:00,62.0,55.8,29.94,West,267,2.0,2.0,80,0.00,,,0.00,Wunderground v.1.15,2013-07-17 01:20:00,
2013-07-16 18:30:00,62.1,56.2,29.94,WSW,244,2.0,2.0,81,0.00,,,0.00,Wunderground v.1.15,2013-07-17 01:30:00,
2013-07-16 18:40:00,62.3,56.4,29.94,SW,232,1.0,1.0,81,0.00,,,0.00,Wunderground v.1.15,2013-07-17 01:40:00,
2013-07-16 18:50:00,62.0,56.1,29.95,NW,321,1.0,1.0,81,0.00,,,0.00,Wunderground v.1.15,2013-07-17 01:50:00,
2013-07-16 19:00:00,61.6,55.7,29.95,NNW,342,3.0,3.0,81,0.00,,,0.00,Wunderground v.1.15,2013-07-17 02:00:00,
2013-07-16 19:10:00,61.5,56.0,29.95,WNW,293,1.0,1.0,82,0.00,,,0.00,Wunderground v.1.15,2013-07-17 02:10:00,
2013-07-16 19:20:00,61.3,55.8,29.96,WNW,303,0.0,2.0,82,0.00,,,0.00,Wunderground v.1.15,2013-07-17 02:20:00,
2013-07-16 19:30:00,60.8,55.3,29.96,North,355,1.0,1.0,82,0.00,,,0.00,Wunderground v.1.15,2013-07-17 02:30:00,
2013-07-16 19:40:00,60.5,55.3,29.96,NW,323,0.0,0.0,83,0.00,,,0.00,Wunderground v.1.15,2013-07-17 02:40:00,
2013-07-16 19:50:00,60.4,55.5,29.97,SSW,209,1.0,1.0,84,0.00,,,0.00,Wunderground v.1.15,2013-07-17 02:50:00,
2013-07-16 20:00:00,60.5,55.6,29.97,North,355,0.0,0.0,84,0.00,,,0.00,Wunderground v.1.15,2013-07-17 03:00:00,
2013-07-16 20:10:00,60.4,55.2,29.97,North,355,0.0,0.0,83,0.00,,,0.00,Wunderground v.1.15,2013-07-17 03:10:00,
2013-07-16 20:20:00,60.1,55.2,29.98,NNW,331,0.0,0.0,84,0.00,,,0.00,Wunderground v.1.15,2013-07-17 03:20:00,
2013-07-16 20:30:00,59.6,54.8,29.98,West,277,0.0,0.0,84,0.00,,,0.00,Wunderground v.1.15,2013-07-17 03:30:00,
2013-07-16 20:35:00,59.5,54.7,29.98,WSW,244,0.0,0.0,84,0.00,,,0.00,Wunderground v.1.15,2013-07-17 03:35:00,
2013-07-16 20:45:00,59.2,54.4,29.99,WNW,292,1.0,2.0,84,0.00,,,0.00,Wunderground v.1.15,2013-07-17 03:45:00,
2013-07-16 20:55:00,59.0,54.5,29.99,NNW,338,2.0,2.0,85,0.00,,,0.00,Wunderground v.1.15,2013-07-17 03:55:00,
2013-07-16 21:00:00,59.0,54.8,29.99,NNW,338,1.0,1.0,86,0.00,,,0.00,Wunderground v.1.15,2013-07-17 04:00:00,
2013-07-16 21:05:00,58.9,54.7,29.99,NNW,338,0.0,1.0,86,0.00,,,0.00,Wunderground v.1.15,2013-07-17 04:05:00,
2013-07-16 21:10:00,58.9,54.7,29.99,NNW,338,0.0,0.0,86,0.00,,,0.00,Wunderground v.1.15,2013-07-17 04:10:00,
2013-07-16 21:15:00,58.9,54.7,29.99,NNW,338,0.0,0.0,86,0.00,,,0.00,Wunderground v.1.15,2013-07-17 04:15:00,
2013-07-16 21:20:00,58.8,54.6,29.99,NNW,338,0.0,0.0,86,0.00,,,0.00,Wunderground v.1.15,2013-07-17 04:20:00,
2013-07-16 21:25:00,58.7,54.5,30.00,ESE,118,0.0,0.0,86,0.00,,,0.00,Wunderground v.1.15,2013-07-17 04:25:00,
2013-07-16 21:30:00,58.7,54.5,30.00,ESE,118,0.0,0.0,86,0.00,,,0.00,Wunderground v.1.15,2013-07-17 04:30:00,
2013-07-16 21:40:00,58.6,54.7,30.00,NW,321,0.0,0.0,87,0.00,,,0.00,Wunderground v.1.15,2013-07-17 04:40:00,
2013-07-16 21:50:00,58.3,54.1,30.01,WNW,299,0.0,0.0,86,0.00,,,0.00,Wunderground v.1.15,2013-07-17 04:50:00,
2013-07-16 21:55:00,58.0,54.2,30.01,WNW,292,1.0,1.0,87,0.00,,,0.00,Wunderground v.1.15,2013-07-17 04:55:00,
2013-07-16 22:00:00,57.8,54.0,30.01,WNW,292,0.0,0.0,87,0.00,,,0.00,Wunderground v.1.15,2013-07-17 05:00:00,
2013-07-16 22:10:00,57.6,54.1,30.02,WNW,292,0.0,0.0,88,0.00,,,0.00,Wunderground v.1.15,2013-07-17 05:10:00,
2013-07-16 22:15:00,57.5,54.0,30.02,WNW,292,0.0,0.0,88,0.00,,,0.00,Wunderground v.1.15,2013-07-17 05:15:00,
2013-07-16 22:25:00,57.5,54.0,30.02,NE,43,0.0,0.0,88,0.00,,,0.00,Wunderground v.1.15,2013-07-17 05:25:00,
2013-07-16 22:35:00,57.3,53.8,30.02,NE,43,0.0,0.0,88,0.00,,,0.00,Wunderground v.1.15,2013-07-17 05:35:00,
2013-07-16 22:40:00,57.2,53.7,30.02,NE,43,0.0,0.0,88,0.00,,,0.00,Wunderground v.1.15,2013-07-17 05:40:00,
2013-07-16 22:50:00,57.1,53.9,30.03,NE,43,0.0,0.0,89,0.00,,,0.00,Wunderground v.1.15,2013-07-17 05:50:00,
2013-07-16 23:00:00,57.2,54.0,30.03,NE,43,0.0,0.0,89,0.00,,,0.00,Wunderground v.1.15,2013-07-17 06:00:00,
2013-07-16 23:10:00,57.1,53.9,30.03,NE,43,0.0,0.0,89,0.00,,,0.00,Wunderground v.1.15,2013-07-17 06:10:00,
2013-07-16 23:20:00,57.1,53.9,30.03,NE,43,0.0,0.0,89,0.00,,,0.00,Wunderground v.1.15,2013-07-17 06:20:00,
2013-07-16 23:30:00,57.0,53.8,30.03,NE,43,0.0,0.0,89,0.00,,,0.00,Wunderground v.1.15,2013-07-17 06:30:00,
2013-07-16 23:40:00,57.0,53.8,30.03,NE,43,0.0,0.0,89,0.00,,,0.00,Wunderground v.1.15,2013-07-17 06:40:00,
2013-07-16 23:50:00,57.0,54.1,30.03,NE,43,0.0,0.0,90,0.00,,,0.00,Wunderground v.1.15,2013-07-17 06:50:00,